createdAt,value
2018-11-26T00:03:50.230Z,75.04
2018-11-26T00:08:54.032Z,75.15
2018-11-26T00:13:57.572Z,75.38
2018-11-26T00:19:00.948Z,75.33
2018-11-26T00:24:04.357Z,75.24
2018-11-26T00:29:07.759Z,75.40
2018-11-26T00:34:11.296Z,76.37
2018-11-26T00:39:14.979Z,75.71
2018-11-26T00:44:18.424Z,75.95
2018-11-26T00:49:22.710Z,76.01
2018-11-26T00:54:26.454Z,76.25
2018-11-26T00:59:29.904Z,75.92
2018-11-26T01:04:34.485Z,75.79
2018-11-26T01:09:38.270Z,76.26
2018-11-26T01:14:41.611Z,76.77
2018-11-26T01:19:45.101Z,77.02
2018-11-26T01:24:48.475Z,77.33
2018-11-26T01:29:51.997Z,77.05
2018-11-26T01:34:55.395Z,76.76
2018-11-26T01:39:58.761Z,77.37
2018-11-26T01:45:02.164Z,76.64
2018-11-26T01:50:06.086Z,76.71
2018-11-26T01:55:10.391Z,76.45
2018-11-26T02:00:19.761Z,76.24
2018-11-26T02:05:23.130Z,76.68
2018-11-26T02:10:26.539Z,76.92
2018-11-26T02:15:35.747Z,76.90
2018-11-26T02:20:39.333Z,77.09
2018-11-26T02:25:42.646Z,76.83
2018-11-26T02:30:46.076Z,76.69
2018-11-26T02:35:49.419Z,76.43
2018-11-26T02:40:52.861Z,76.78
2018-11-26T02:45:56.275Z,77.13
2018-11-26T02:50:59.679Z,77.63
2018-11-26T02:56:02.977Z,77.55
2018-11-26T03:01:07.066Z,77.18
2018-11-26T03:06:10.351Z,76.85
2018-11-26T03:11:13.837Z,76.48
2018-11-26T03:16:17.385Z,77.07
2018-11-26T03:21:20.701Z,76.32
2018-11-26T03:26:24.256Z,76.23
2018-11-26T03:31:27.568Z,76.28
2018-11-26T03:36:30.955Z,76.68
2018-11-26T03:41:34.487Z,76.99
2018-11-26T03:46:37.792Z,76.91
2018-11-26T03:51:41.140Z,76.87
2018-11-26T03:56:44.729Z,76.85
2018-11-26T04:01:48.175Z,76.88
2018-11-26T04:06:51.467Z,77.34
2018-11-26T04:11:54.780Z,76.97
2018-11-26T04:16:58.194Z,76.87
2018-11-26T04:22:02.025Z,76.51
2018-11-26T04:27:05.684Z,76.42
2018-11-26T04:32:09.004Z,76.21
2018-11-26T04:37:12.713Z,75.98
2018-11-26T04:42:16.325Z,76.75
2018-11-26T04:47:19.655Z,76.69
2018-11-26T04:52:23.152Z,75.87
2018-11-26T04:57:26.822Z,75.83
2018-11-26T05:02:30.474Z,76.58
2018-11-26T05:07:34.041Z,77.04
2018-11-26T05:12:38.276Z,76.77
2018-11-26T05:17:41.739Z,76.24
2018-11-26T05:22:45.194Z,76.42
2018-11-26T05:27:48.858Z,76.78
2018-11-26T05:32:52.538Z,76.79
2018-11-26T05:37:56.125Z,76.80
2018-11-26T05:42:59.812Z,76.66
2018-11-26T05:48:03.232Z,76.38
2018-11-26T05:53:07.473Z,76.60
2018-11-26T05:58:11.007Z,76.33
2018-11-26T06:03:14.670Z,76.35
2018-11-26T06:08:18.316Z,76.91
2018-11-26T06:13:21.916Z,77.00
2018-11-26T06:18:25.523Z,77.60
2018-11-26T06:23:29.172Z,77.38
2018-11-26T06:28:32.848Z,76.94
2018-11-26T06:33:36.515Z,77.32
2018-11-26T06:38:40.036Z,76.98
2018-11-26T06:43:43.420Z,76.77
2018-11-26T06:48:47.016Z,76.65
2018-11-26T06:53:50.550Z,76.95
2018-11-26T06:58:53.957Z,76.70
2018-11-26T07:03:57.647Z,76.57
2018-11-26T07:09:01.142Z,76.91
2018-11-26T07:14:04.981Z,77.13
2018-11-26T07:19:08.570Z,76.62
2018-11-26T07:24:12.109Z,76.61
2018-11-26T07:29:15.705Z,76.23
2018-11-26T07:34:19.302Z,76.18
2018-11-26T07:39:22.742Z,76.15
2018-11-26T07:44:26.444Z,76.35
2018-11-26T07:49:29.941Z,75.67
2018-11-26T07:54:33.323Z,75.56
2018-11-26T07:59:36.873Z,75.13
2018-11-26T08:04:40.398Z,75.46
2018-11-26T08:09:43.965Z,75.39
2018-11-26T08:14:47.418Z,75.39
2018-11-26T08:19:50.883Z,75.46
2018-11-26T08:24:54.423Z,75.37
2018-11-26T08:29:58.015Z,75.20
2018-11-26T08:35:01.492Z,75.05
2018-11-26T08:40:12.173Z,74.47
2018-11-26T08:45:20.555Z,74.48
2018-11-26T08:50:24.176Z,74.41
2018-11-26T08:55:27.901Z,74.40
2018-11-26T09:00:31.424Z,74.53
2018-11-26T09:05:35.855Z,74.50
2018-11-26T09:10:39.718Z,74.25
2018-11-26T09:15:43.478Z,74.11
2018-11-26T09:20:47.182Z,74.00
2018-11-26T09:25:50.906Z,74.08
2018-11-26T09:30:54.506Z,73.73
2018-11-26T09:35:58.136Z,73.63
2018-11-26T09:41:01.797Z,73.40
2018-11-26T09:46:05.865Z,73.44
2018-11-26T09:51:14.103Z,73.23
2018-11-26T09:56:13.342Z,73.82
2018-11-26T10:01:16.829Z,73.15
2018-11-26T10:06:20.232Z,72.98
2018-11-26T10:11:23.956Z,72.90
2018-11-26T10:16:27.507Z,72.86
2018-11-26T10:21:31.072Z,72.97
2018-11-26T10:26:34.759Z,72.87
2018-11-26T14:31:25.814Z,70.36
2018-11-26T14:41:36.569Z,70.70
2018-11-26T14:46:40.067Z,70.11
2018-11-26T14:51:46.362Z,70.40
2018-11-26T14:56:50.079Z,70.38
2018-11-26T15:01:54.073Z,70.11
2018-11-26T15:06:57.636Z,69.72
2018-11-26T15:12:01.223Z,69.76
2018-11-26T15:17:05.547Z,69.78
2018-11-26T15:22:09.317Z,69.94
2018-11-26T15:27:12.857Z,69.74
2018-11-26T15:32:18.143Z,68.90
2018-11-26T15:37:21.661Z,68.66
2018-11-26T15:42:26.580Z,68.83
2018-11-26T15:47:30.109Z,68.99
2018-11-26T15:52:33.390Z,68.99
2018-11-26T15:57:36.781Z,68.84
2018-11-26T16:02:40.192Z,68.65
2018-11-26T16:07:43.774Z,68.71
2018-11-26T16:12:49.015Z,68.95
2018-11-26T16:17:54.044Z,68.89
2018-11-26T16:23:01.521Z,68.63
2018-11-26T16:28:06.382Z,68.69
2018-11-26T16:33:11.042Z,68.32
2018-11-26T16:38:16.595Z,68.57
2018-11-26T16:43:21.452Z,68.46
2018-11-26T16:48:25.411Z,68.22
2018-11-26T16:53:29.253Z,68.24
2018-11-26T16:58:33.902Z,67.75
2018-11-26T17:03:37.519Z,67.76
2018-11-26T17:08:44.247Z,68.25
2018-11-26T17:13:48.735Z,67.84
2018-11-26T17:18:53.062Z,68.13
2018-11-26T17:23:56.821Z,68.85
2018-11-26T17:29:00.708Z,68.47
2018-11-26T17:34:04.726Z,68.61
2018-11-26T17:39:11.503Z,68.55
2018-11-26T17:44:15.287Z,68.78
2018-11-26T17:49:19.152Z,68.69
2018-11-26T17:54:24.264Z,68.10
2018-11-26T17:59:29.731Z,67.89
2018-11-26T18:04:34.970Z,67.55
2018-11-26T18:09:38.765Z,67.45
2018-11-26T18:14:42.621Z,68.59
2018-11-26T18:19:46.538Z,68.23
2018-11-26T18:24:59.035Z,67.82
2018-11-26T18:30:03.179Z,67.94
2018-11-26T18:35:07.526Z,66.95
2018-11-26T18:40:16.307Z,67.62
2018-11-26T18:45:20.526Z,67.54
2018-11-26T18:50:27.101Z,67.80
2018-11-26T18:55:32.142Z,67.30
2018-11-26T19:00:45.503Z,67.67
2018-11-26T19:05:50.299Z,68.13
2018-11-26T19:11:03.543Z,68.84
2018-11-26T19:16:10.725Z,68.93
2018-11-26T19:21:14.319Z,68.87
2018-11-26T19:26:17.895Z,68.73
2018-11-26T19:31:27.814Z,68.71
2018-11-26T19:36:34.443Z,69.17
2018-11-26T19:41:38.370Z,68.67
2018-11-26T19:46:41.985Z,68.05
2018-11-26T19:52:15.801Z,68.15
2018-11-26T19:57:20.459Z,68.11
2018-11-26T20:02:26.176Z,68.19
2018-11-26T20:07:30.645Z,67.68
2018-11-26T20:12:39.541Z,67.33
2018-11-26T20:17:43.748Z,67.69
2018-11-26T20:22:47.781Z,67.41
2018-11-26T20:27:51.529Z,67.00
2018-11-26T20:32:55.564Z,66.82
2018-11-26T20:37:59.363Z,66.93
2018-11-26T20:43:03.295Z,66.67
2018-11-26T20:48:08.047Z,67.02
2018-11-26T20:53:12.371Z,66.89
2018-11-26T20:58:17.323Z,66.46
2018-11-26T21:03:21.880Z,66.52
2018-11-26T21:08:25.498Z,66.50
2018-11-26T21:13:29.126Z,66.04
2018-11-26T21:18:32.464Z,66.15
2018-11-26T21:23:35.818Z,65.88
2018-11-26T21:28:39.265Z,65.69
2018-11-26T21:33:43.314Z,65.56
2018-11-26T21:38:47.344Z,65.73
2018-11-26T21:43:51.460Z,65.59
2018-11-26T21:48:55.513Z,66.17
2018-11-26T21:53:59.548Z,65.83
2018-11-26T21:59:03.546Z,65.58
2018-11-26T22:04:07.342Z,65.33
2018-11-26T22:09:12.077Z,65.34
2018-11-26T22:14:16.152Z,65.32
2018-11-26T22:19:20.131Z,65.17
2018-11-26T22:24:23.951Z,65.42
2018-11-26T22:29:27.635Z,64.78
2018-11-26T22:34:31.544Z,64.86
2018-11-26T22:39:35.497Z,64.79
2018-11-26T22:44:39.282Z,64.88
2018-11-26T22:49:43.286Z,64.52
2018-11-26T22:54:47.058Z,64.56
2018-11-26T22:59:50.920Z,64.52
